Roseburg, OR (97470)

9:21 PM PDT on September 27, 2016 (GMT -0700)
Hucrest | | Change Station

Elev 425 ft 43.22 °N, 123.38 °W | Updated 1 minute ago

Clear
Clear
69.1 °F
Feels Like 69.1 °F
N
2.0
Wind Variable Wind from North
Gusts 2.0 mph

Today
High -- | Low -- °F
--% Chance of Precip.
Yesterday
High -- | Low -- °F
Precip. -- in
Pressure 29.98 in
Visibility 10.0 miles
Clouds Clear
Dew Point 51 °F
Humidity 52%
Rainfall 0.00 in
Snow Depth Not available.
7:07 AM 7:00 PM
Waning Crescent, 8% visible
METAR KRBG 280353Z AUTO 36008KT 10SM CLR 22/10 A2999 RMK AO2 SLP152 T02170100
Pressure 29.98 in
Visibility 10.0 miles
Clouds Clear
Dew Point 51 °F
Humidity 52%
Rainfall 0.00 in
Snow Depth Not available.
7:07 AM 7:00 PM
Waning Crescent, 8% visible
METAR KRBG 280353Z AUTO 36008KT 10SM CLR 22/10 A2999 RMK AO2 SLP152 T02170100

10-Day Weather Forecast

Almanac

Astronomy

Sep. 27, 2016 Rise Set
Actual Time
Civil Twilight
Nautical Twilight
Astronomical Twilight
Moon
Length of Visible Light
Length of Day
Tomorrow will be .
, % of the Moon is Illuminated

Today's Extremes

State Highs State Lows

Community

WunderPhotos

Upload Photos

1,942,209 photos uploaded!

WunderBlog® & News

Nearby

Air Quality

  Air Quality AQ Index Pollutant
Not available.

Snow Depth

Station Depth Elevation

Earthquake Activity

City Distance Mag. Time & Date
Minimum magnitude displayed is 2.5.

Coastal Water Temperatures

Place Temperature

Stations

Nearby Weather Stations

Station Location Temp. Windchill Dew Point Humidity Wind Precip. Elev Updated Type
                   

Watches & Warnings

There are currently no watches in effect.